»·PEaware :: VTE250 KLAS-KPSP

VTE250 :: KLAS-KPSP

FLIGHT INFORMATION

Flight Status: Arrived
Operator: Unknown
More flights by this operator :: More flights under this callsign
Pilot: Anonymous 13363 (13363)
Aircraft: AIRBUS A320
(A320)
More flights by this aircraft type
Origin: KLAS McCarran Intl
United States
Destination: KPSP Palm Springs Intl
United States
More flights between these airports :: More routes between these airports
Route: +BOACH8 TNP SBONO1
File this flight plan on PilotEdge
Remarks:
Altitude:
(Current/Filed)
22,000ft
Speed:
(Current/Filed)
460kts
Departed: 04-Dec-17 08:11 PM
Arrived: 04-Dec-17 08:57 PM
Distance/Time
Traveled:
151nm/0:45
Distance/Time
To Go:
Arrived

Flight Plot

Page will automatically refresh every two minutes.

Flight plan parsing failed; only flown route is shown


Map Options




Map Legend


Flown Route
Filed Route
Departure Airport
Arrival Airport
Navaid (VOR, NDB)
Fix

Horizontal Profiles

Position Reports

Time Latitude Longitude Heading Altitude Ground
Speed
04-Dec-17 19:52 36.096541 -115.160610 24 2120ft 5kts
04-Dec-17 19:53 36.097801 -115.160736 227 2120ft 9kts
04-Dec-17 19:54 36.096793 -115.161544 22 2120ft 1kts
04-Dec-17 19:55 36.096795 -115.161543 22 2120ft 0kts
04-Dec-17 19:56 36.096795 -115.161543 22 2120ft 0kts
04-Dec-17 19:57 36.096795 -115.161543 22 2120ft 0kts
04-Dec-17 19:58 36.096795 -115.161543 22 2120ft 0kts
04-Dec-17 19:59 36.096795 -115.161543 22 2120ft 0kts
04-Dec-17 20:00 36.096795 -115.161543 22 2120ft 0kts
04-Dec-17 20:01 36.096795 -115.161543 22 2120ft 0kts
04-Dec-17 20:02 36.096795 -115.161543 22 2120ft 0kts
04-Dec-17 20:03 36.096795 -115.161543 22 2120ft 0kts
04-Dec-17 20:04 36.096795 -115.161543 22 2120ft 0kts
04-Dec-17 20:05 36.096795 -115.161543 22 2120ft 0kts
04-Dec-17 20:06 36.096796 -115.161543 22 2120ft 0kts
04-Dec-17 20:07 36.096796 -115.161543 22 2120ft 0kts
04-Dec-17 20:08 36.096796 -115.161543 22 2120ft 0kts
04-Dec-17 20:09 36.096857 -115.161508 28 2120ft 2kts
04-Dec-17 20:10 36.097813 -115.160288 99 2120ft 6kts
04-Dec-17 20:11 36.094896 -115.161565 204 2120ft 13kts
04-Dec-17 20:12 36.090598 -115.164020 205 2120ft 14kts
04-Dec-17 20:13 36.085382 -115.167010 204 2120ft 26kts
04-Dec-17 20:14 36.080503 -115.169822 204 2120ft 14kts
04-Dec-17 20:15 36.075548 -115.170453 102 2120ft 4kts
04-Dec-17 20:16 36.095643 -115.158638 23 2641ft 196kts
04-Dec-17 20:17 36.136511 -115.178940 290 6321ft 248kts
04-Dec-17 20:18 36.114110 -115.265749 248 10542ft 294kts
04-Dec-17 20:19 36.023034 -115.330410 206 13391ft 398kts
04-Dec-17 20:20 35.919326 -115.378603 199 17123ft 401kts
04-Dec-17 20:21 35.829886 -115.354798 168 20475ft 414kts
04-Dec-17 20:22 35.714457 -115.309022 169 22193ft 460kts
04-Dec-17 20:23 35.588252 -115.298078 191 22278ft 453kts
04-Dec-17 20:24 35.457804 -115.303462 190 22280ft 472kts
04-Dec-17 20:25 35.327237 -115.308560 190 22175ft 470kts
04-Dec-17 20:26 35.197028 -115.313687 190 22171ft 470kts
04-Dec-17 20:27 35.066581 -115.318799 190 22172ft 469kts
04-Dec-17 20:28 34.937314 -115.323799 190 22129ft 452kts
04-Dec-17 20:29 34.834538 -115.327585 191 21366ft 400kts
04-Dec-17 20:30 34.734240 -115.351229 211 20417ft 353kts
04-Dec-17 20:31 34.642649 -115.391451 210 19836ft 342kts
04-Dec-17 20:32 34.554470 -115.430070 210 19125ft 344kts
04-Dec-17 20:33 34.465687 -115.468714 210 18490ft 336kts
04-Dec-17 20:34 34.378258 -115.506747 210 17987ft 332kts
04-Dec-17 20:35 34.300758 -115.557753 232 17619ft 307kts
04-Dec-17 20:36 34.238283 -115.628279 232 17304ft 308kts
04-Dec-17 20:37 34.188888 -115.683853 231 17092ft 308kts
04-Dec-17 20:38 34.138300 -115.740649 231 16778ft 302kts
04-Dec-17 20:39 34.073659 -115.801130 222 15142ft 296kts
04-Dec-17 20:40 34.006636 -115.855415 221 13505ft 287kts
04-Dec-17 20:41 33.941275 -115.908290 218 11910ft 282kts
04-Dec-17 20:42 33.900283 -115.980023 268 11108ft 286kts
04-Dec-17 20:43 33.894760 -116.060894 262 11071ft 236kts
04-Dec-17 20:44 33.841826 -116.085533 143 9302ft 265kts
04-Dec-17 20:45 33.818079 -116.006613 101 9115ft 253kts
04-Dec-17 20:46 33.803457 -115.923739 89 9109ft 253kts
04-Dec-17 20:47 33.850209 -115.887121 332 9096ft 237kts
04-Dec-17 20:48 33.876963 -115.965064 280 9099ft 269kts
04-Dec-17 20:49 33.888849 -116.047767 280 9092ft 227kts
04-Dec-17 20:50 33.854408 -116.102873 207 8805ft 236kts
04-Dec-17 20:51 33.795496 -116.135094 207 7236ft 225kts
04-Dec-17 20:52 33.738182 -116.166720 206 5976ft 236kts
04-Dec-17 20:53 33.689926 -116.211092 264 5275ft 223kts
04-Dec-17 20:54 33.683154 -116.282615 265 4681ft 208kts
04-Dec-17 20:55 33.677330 -116.342954 265 4106ft 159kts
04-Dec-17 20:56 33.693634 -116.381955 322 3658ft 152kts
04-Dec-17 20:57 33.723585 -116.409601 323 2934ft 145kts
04-Dec-17 20:58 33.751438 -116.437775 319 2170ft 120kts
04-Dec-17 20:59 33.776730 -116.460620 328 1641ft 112kts
04-Dec-17 21:00 33.801802 -116.482830 323 1026ft 111kts
04-Dec-17 21:01 33.826231 -116.504579 324 489ft 102kts
04-Dec-17 21:02 33.834490 -116.510644 63 486ft 0kts
04-Dec-17 21:03 33.835340 -116.509229 63 486ft 11kts
04-Dec-17 21:04 33.831887 -116.505757 143 486ft 18kts
04-Dec-17 21:05 33.828551 -116.502807 145 486ft 10kts
04-Dec-17 21:06 33.825434 -116.500015 144 486ft 15kts
04-Dec-17 21:07 33.823772 -116.498399 144 486ft 5kts
04-Dec-17 21:08 33.822132 -116.496882 141 486ft 13kts
04-Dec-17 21:09 33.822090 -116.496117 323 486ft 2kts
04-Dec-17 21:10 33.822097 -116.496123 321 486ft 0kts
04-Dec-17 21:11 33.822097 -116.496123 321 486ft 0kts
04-Dec-17 21:12 33.822097 -116.496123 321 486ft 0kts
04-Dec-17 21:13 33.822097 -116.496123 321 486ft 0kts

Navigation Log

Ident Type
Flight plan parsing failed, navigation log unavailable